Time;durP1;ratioP1;P1;durP2;ratioP2;P2;SDS_P1;SDS_P2;PMS_P1;PMS_P2;Temp;Humidity;BMP_temperature;BMP_pressure;BME280_temperature;BME280_humidity;BME280_pressure;Samples;Min_cycle;Max_cycle;Signal;HPM_P1;HPM_P2
2023/09/26 00:01:38;;;;;;;1.33;1.23;;;13.40;58.70;;;;;;5174637;27;20188;-68
2023/09/26 00:04:04;;;;;;;0.50;0.50;;;13.40;58.70;;;;;;5174725;27;20022;-67
2023/09/26 00:06:30;;;;;;;0.60;0.60;;;13.40;58.80;;;;;;5174508;27;20021;-67
2023/09/26 00:08:56;;;;;;;0.47;0.47;;;13.30;58.80;;;;;;5174348;27;20050;-67
2023/09/26 00:11:22;;;;;;;0.30;0.30;;;13.30;58.80;;;;;;5174990;27;20382;-67
2023/09/26 00:13:49;;;;;;;0.40;0.40;;;13.30;58.80;;;;;;5174787;27;20356;-67
2023/09/26 00:16:15;;;;;;;0.50;0.50;;;13.20;58.80;;;;;;5174825;27;20508;-67
2023/09/26 00:18:42;;;;;;;0.50;0.50;;;13.10;58.90;;;;;;5174715;27;20057;-67
2023/09/26 00:21:08;;;;;;;0.73;0.73;;;13.10;59.00;;;;;;5175063;27;20041;-67
2023/09/26 00:23:35;;;;;;;0.50;0.50;;;13.10;59.10;;;;;;5174411;27;20050;-67
2023/09/26 00:26:01;;;;;;;0.50;0.50;;;13.10;59.20;;;;;;5174976;27;20049;-68
2023/09/26 00:28:26;;;;;;;0.50;0.50;;;13.10;59.20;;;;;;5174319;27;20497;-67
2023/09/26 00:30:52;;;;;;;0.50;0.50;;;13.20;59.20;;;;;;5174331;27;20027;-67
2023/09/26 00:33:18;;;;;;;0.50;0.50;;;13.10;59.30;;;;;;5173994;27;20018;-68
2023/09/26 00:35:43;;;;;;;0.40;0.40;;;13.00;59.50;;;;;;5174538;27;20052;-68
2023/09/26 00:38:09;;;;;;;0.40;0.40;;;13.00;59.50;;;;;;5173623;27;20038;-68
2023/09/26 00:40:34;;;;;;;0.50;0.50;;;13.00;59.50;;;;;;5174364;27;20046;-67
2023/09/26 00:43:00;;;;;;;0.50;0.50;;;13.00;59.60;;;;;;5173593;27;20018;-67
2023/09/26 00:45:27;;;;;;;0.50;0.50;;;13.00;59.80;;;;;;5173911;27;20038;-68
2023/09/26 00:47:53;;;;;;;0.60;0.60;;;13.00;59.90;;;;;;5173567;27;20025;-68
2023/09/26 00:50:22;;;;;;;0.50;0.50;;;13.00;59.90;;;;;;5174214;27;20023;-68
2023/09/26 00:52:49;;;;;;;0.40;0.40;;;13.00;60.00;;;;;;5173938;27;20534;-67
2023/09/26 00:55:18;;;;;;;0.40;0.40;;;13.00;60.00;;;;;;5174351;27;20058;-67
2023/09/26 00:57:44;;;;;;;0.60;0.60;;;13.00;60.20;;;;;;5174199;27;20379;-67
2023/09/26 01:00:13;;;;;;;0.60;0.60;;;13.00;60.40;;;;;;5174053;27;20053;-68
2023/09/26 01:02:39;;;;;;;0.50;0.50;;;12.90;60.40;;;;;;5173844;27;20379;-66
2023/09/26 01:05:06;;;;;;;0.50;0.50;;;12.90;60.50;;;;;;5176813;27;20428;-68
2023/09/26 01:07:33;;;;;;;0.43;0.43;;;12.90;60.70;;;;;;5178114;27;20551;-66
2023/09/26 01:10:00;;;;;;;0.70;0.70;;;12.90;60.80;;;;;;5177549;27;20026;-67
2023/09/26 01:12:27;;;;;;;0.70;0.70;;;12.90;60.80;;;;;;5177473;27;20057;-67
2023/09/26 01:14:54;;;;;;;0.40;0.40;;;12.90;60.70;;;;;;5178450;27;20034;-67
2023/09/26 01:17:19;;;;;;;0.50;0.50;;;12.80;60.70;;;;;;5177138;27;20050;-67
2023/09/26 01:19:45;;;;;;;0.85;0.85;;;12.80;60.80;;;;;;5178008;27;20058;-67
2023/09/26 01:22:16;;;;;;;0.45;0.45;;;12.70;60.90;;;;;;5176067;27;20022;-67
2023/09/26 01:24:41;;;;;;;0.50;0.50;;;12.70;60.90;;;;;;5177757;27;20026;-67
2023/09/26 01:27:07;;;;;;;0.50;0.50;;;12.60;61.00;;;;;;5177460;27;20389;-67
2023/09/26 01:29:33;;;;;;;0.50;0.50;;;12.60;61.00;;;;;;5177505;27;20122;-67
2023/09/26 01:31:58;;;;;;;0.50;0.50;;;12.50;61.00;;;;;;5177419;27;20100;-67
2023/09/26 01:34:24;;;;;;;0.50;0.50;;;12.50;61.00;;;;;;5177664;27;20113;-67
2023/09/26 01:36:50;;;;;;;0.60;0.60;;;12.50;61.40;;;;;;5171662;27;20033;-67
2023/09/26 01:39:15;;;;;;;0.50;0.50;;;12.40;61.50;;;;;;5156329;27;20030;-66
2023/09/26 01:41:41;;;;;;;1.27;1.05;;;12.40;61.50;;;;;;5156222;27;20141;-67
2023/09/26 01:44:06;;;;;;;0.60;0.60;;;12.40;61.50;;;;;;5156013;27;20030;-67
2023/09/26 01:46:32;;;;;;;0.50;0.50;;;12.40;61.50;;;;;;5171118;27;20026;-67
2023/09/26 01:48:58;;;;;;;0.50;0.50;;;12.30;61.50;;;;;;5175224;27;20018;-67
2023/09/26 01:51:23;;;;;;;0.47;0.47;;;12.30;61.50;;;;;;5160794;27;20095;-66
2023/09/26 01:53:49;;;;;;;0.60;0.60;;;12.30;61.50;;;;;;5155770;27;20037;-67
2023/09/26 01:56:14;;;;;;;0.40;0.40;;;12.30;61.60;;;;;;5172340;27;20035;-66
2023/09/26 01:58:40;;;;;;;0.55;0.55;;;12.20;61.60;;;;;;5175020;27;20502;-66
2023/09/26 02:01:05;;;;;;;0.65;0.65;;;12.20;61.60;;;;;;5165217;27;20058;-67
2023/09/26 02:03:31;;;;;;;0.60;0.60;;;12.20;61.60;;;;;;5176526;27;20399;-67
2023/09/26 02:05:58;;;;;;;0.47;0.47;;;12.20;61.60;;;;;;5176614;27;20539;-67
2023/09/26 02:08:24;;;;;;;0.50;0.50;;;12.10;61.60;;;;;;5175343;27;20041;-67
2023/09/26 02:10:49;;;;;;;0.40;0.40;;;12.00;61.70;;;;;;5175323;27;20391;-68
2023/09/26 02:13:15;;;;;;;0.50;0.50;;;12.00;61.90;;;;;;5176470;27;20034;-67
2023/09/26 02:15:40;;;;;;;0.40;0.40;;;12.00;62.10;;;;;;5176337;27;20055;-67
2023/09/26 02:18:06;;;;;;;0.50;0.50;;;11.90;62.20;;;;;;5176314;27;20050;-67
2023/09/26 02:20:31;;;;;;;0.50;0.50;;;11.90;62.30;;;;;;5176933;27;20497;-67
2023/09/26 02:22:57;;;;;;;0.50;0.50;;;11.80;62.50;;;;;;5176254;27;20047;-67
2023/09/26 02:25:23;;;;;;;0.50;0.50;;;11.80;62.60;;;;;;5176666;27;20824;-67
2023/09/26 02:27:49;;;;;;;0.40;0.40;;;11.80;62.70;;;;;;5174989;27;20109;-67
2023/09/26 02:30:23;;;;;;;0.50;0.50;;;11.70;62.90;;;;;;5176452;27;20050;-67
2023/09/26 02:32:49;;;;;;;0.50;0.50;;;11.70;63.00;;;;;;5176326;27;20029;-67
2023/09/26 02:35:16;;;;;;;0.60;0.60;;;11.70;63.00;;;;;;5176437;27;20034;-67
2023/09/26 02:37:42;;;;;;;0.40;0.40;;;11.70;63.20;;;;;;5163458;27;20075;-67
2023/09/26 02:40:10;;;;;;;0.50;0.50;;;11.70;63.30;;;;;;5154929;27;20035;-67
2023/09/26 02:42:36;;;;;;;0.90;0.85;;;11.70;63.50;;;;;;5154991;27;20026;-67
2023/09/26 02:45:02;;;;;;;0.40;0.40;;;11.70;63.70;;;;;;5155419;27;20467;-67
2023/09/26 02:47:28;;;;;;;0.50;0.50;;;11.70;63.70;;;;;;5154772;27;20034;-67
2023/09/26 02:49:54;;;;;;;0.50;0.50;;;11.70;63.80;;;;;;5155096;27;20027;-68
2023/09/26 02:52:21;;;;;;;0.50;0.50;;;11.70;64.00;;;;;;5154777;27;20030;-67
2023/09/26 02:54:47;;;;;;;0.75;0.75;;;11.70;64.10;;;;;;5154991;27;20519;-67
2023/09/26 02:57:13;;;;;;;0.50;0.50;;;11.70;64.00;;;;;;5154721;27;20115;-67
2023/09/26 02:59:39;;;;;;;0.52;0.52;;;11.70;63.90;;;;;;5154777;27;20027;-68
2023/09/26 03:02:06;;;;;;;0.60;0.60;;;11.60;63.90;;;;;;5154845;27;20038;-67
2023/09/26 03:04:31;;;;;;;0.57;0.57;;;11.60;64.00;;;;;;5153260;27;20027;-67
2023/09/26 03:06:57;;;;;;;0.50;0.50;;;11.60;64.00;;;;;;5154441;27;20097;-67
2023/09/26 03:09:22;;;;;;;0.57;0.57;;;11.50;64.30;;;;;;5152907;27;20486;-68
2023/09/26 03:11:48;;;;;;;0.50;0.50;;;11.60;64.70;;;;;;5153140;27;20052;-67
2023/09/26 03:14:13;;;;;;;0.50;0.50;;;11.60;65.10;;;;;;5154307;27;20046;-68
2023/09/26 03:16:42;;;;;;;0.50;0.50;;;11.60;65.10;;;;;;5154463;27;20410;-68
2023/09/26 03:19:08;;;;;;;0.50;0.50;;;11.60;65.00;;;;;;5154391;27;20041;-67
2023/09/26 03:21:33;;;;;;;0.50;0.50;;;11.70;64.90;;;;;;5154000;27;20022;-67
2023/09/26 03:23:59;;;;;;;0.50;0.50;;;11.70;65.00;;;;;;5153965;27;20019;-67
2023/09/26 03:26:24;;;;;;;0.70;0.70;;;11.70;65.10;;;;;;5153956;27;20098;-67
2023/09/26 03:28:50;;;;;;;0.50;0.50;;;11.80;65.10;;;;;;5152664;27;20027;-67
2023/09/26 03:31:15;;;;;;;0.50;0.50;;;11.80;65.00;;;;;;5153853;27;20026;-68
2023/09/26 03:33:41;;;;;;;0.50;0.50;;;11.80;65.10;;;;;;5154077;27;20492;-67
2023/09/26 03:36:07;;;;;;;0.50;0.50;;;11.80;65.20;;;;;;5154150;27;20041;-67
2023/09/26 03:38:33;;;;;;;0.50;0.50;;;11.80;65.30;;;;;;5153400;27;20021;-67
2023/09/26 03:41:05;;;;;;;0.50;0.50;;;11.80;65.30;;;;;;5153883;27;20340;-67
2023/09/26 03:43:31;;;;;;;0.57;0.57;;;11.80;65.60;;;;;;5153584;27;20746;-67
2023/09/26 03:46:06;;;;;;;0.50;0.50;;;11.80;65.80;;;;;;5153872;27;20066;-67
2023/09/26 03:48:34;;;;;;;0.63;0.63;;;11.80;65.70;;;;;;5153453;27;20030;-67
2023/09/26 03:51:13;;;;;;;0.50;0.50;;;11.80;65.70;;;;;;5153904;27;20501;-67
2023/09/26 03:53:39;;;;;;;0.50;0.50;;;11.80;65.60;;;;;;5153454;27;20471;-67
2023/09/26 03:56:05;;;;;;;0.60;0.60;;;11.80;65.40;;;;;;5153799;27;20081;-67
2023/09/26 03:58:32;;;;;;;0.50;0.50;;;11.70;65.20;;;;;;5153100;27;20026;-67
2023/09/26 04:01:11;;;;;;;0.50;0.50;;;11.70;65.00;;;;;;5153681;27;20019;-66
2023/09/26 04:03:38;;;;;;;0.50;0.50;;;11.60;64.90;;;;;;5151892;27;20398;-67
2023/09/26 04:06:03;;;;;;;0.50;0.50;;;11.50;64.90;;;;;;5151966;27;20388;-67
2023/09/26 04:08:29;;;;;;;0.55;0.55;;;11.50;65.00;;;;;;5156195;27;20028;-67
2023/09/26 04:10:55;;;;;;;0.50;0.50;;;11.50;65.10;;;;;;5172841;27;20412;-68
2023/09/26 04:13:20;;;;;;;0.60;0.60;;;11.40;65.20;;;;;;5174130;27;20498;-68
2023/09/26 04:15:46;;;;;;;0.50;0.50;;;11.50;65.30;;;;;;5174014;27;20035;-67
2023/09/26 04:18:11;;;;;;;0.60;0.60;;;11.40;65.30;;;;;;5173744;27;20030;-68
2023/09/26 04:20:37;;;;;;;0.50;0.50;;;11.40;65.50;;;;;;5173897;27;20046;-67
2023/09/26 04:23:03;;;;;;;1.13;1.13;;;11.40;65.50;;;;;;5173277;27;20383;-68
2023/09/26 04:25:30;;;;;;;0.50;0.50;;;11.30;65.40;;;;;;5174224;27;20022;-68
2023/09/26 04:27:56;;;;;;;0.47;0.47;;;11.30;65.40;;;;;;5174105;27;20019;-68
2023/09/26 04:30:21;;;;;;;0.50;0.50;;;11.30;65.40;;;;;;5174692;27;20463;-68
2023/09/26 04:32:47;;;;;;;0.50;0.50;;;11.20;65.50;;;;;;5173887;27;20030;-68
2023/09/26 04:35:12;;;;;;;0.60;0.60;;;11.20;65.70;;;;;;5174335;27;20540;-68
2023/09/26 04:37:38;;;;;;;0.50;0.50;;;11.20;65.90;;;;;;5161112;27;20030;-68
2023/09/26 04:40:10;;;;;;;0.40;0.40;;;11.20;66.00;;;;;;5155665;27;20061;-69
2023/09/26 04:42:40;;;;;;;0.50;0.50;;;11.20;66.00;;;;;;5173467;27;20520;-68
2023/09/26 04:45:07;;;;;;;0.70;0.70;;;11.20;66.00;;;;;;5174322;27;20431;-69
2023/09/26 04:47:32;;;;;;;0.70;0.70;;;11.20;66.00;;;;;;5173538;27;20324;-69
2023/09/26 04:49:58;;;;;;;0.30;0.30;;;11.20;66.00;;;;;;5173546;27;20105;-69
2023/09/26 04:52:24;;;;;;;0.52;0.52;;;11.10;66.00;;;;;;5173639;27;20505;-69
2023/09/26 04:54:53;;;;;;;0.40;0.40;;;11.10;66.00;;;;;;5173362;27;20117;-69
2023/09/26 04:57:19;;;;;;;0.50;0.50;;;11.10;66.00;;;;;;5173779;27;20023;-69
2023/09/26 04:59:44;;;;;;;0.50;0.50;;;11.00;66.10;;;;;;5173402;27;20148;-69
2023/09/26 05:02:10;;;;;;;0.70;0.70;;;11.00;66.20;;;;;;5173988;27;20029;-69
2023/09/26 05:04:35;;;;;;;0.50;0.50;;;11.00;66.50;;;;;;5172521;27;20023;-69
2023/09/26 05:07:01;;;;;;;0.50;0.50;;;11.00;66.40;;;;;;5173817;27;20018;-69
2023/09/26 05:09:27;;;;;;;0.50;0.50;;;11.00;66.30;;;;;;5173380;27;20042;-69
2023/09/26 05:11:52;;;;;;;0.60;0.60;;;11.00;66.20;;;;;;5173042;27;20063;-69
2023/09/26 05:14:18;;;;;;;1.95;1.30;;;11.00;66.10;;;;;;5172323;27;20061;-69
2023/09/26 05:16:43;;;;;;;0.40;0.40;;;10.90;66.10;;;;;;5173273;27;20113;-69
2023/09/26 05:19:09;;;;;;;1.13;1.02;;;10.90;66.30;;;;;;5172926;27;20125;-69
2023/09/26 05:21:34;;;;;;;0.50;0.50;;;10.90;66.40;;;;;;5172278;27;20014;-69
2023/09/26 05:24:00;;;;;;;0.57;0.57;;;11.00;66.50;;;;;;5160802;27;20031;-69
2023/09/26 05:26:25;;;;;;;0.50;0.50;;;11.00;66.50;;;;;;5152467;27;20022;-69
2023/09/26 05:28:51;;;;;;;0.50;0.50;;;11.00;66.70;;;;;;5150901;27;20027;-69
2023/09/26 05:31:17;;;;;;;0.60;0.60;;;11.20;67.50;;;;;;5152538;27;20026;-69
2023/09/26 05:33:43;;;;;;;0.50;0.50;;;11.30;68.20;;;;;;5152479;27;20486;-69
2023/09/26 05:36:09;;;;;;;0.80;0.80;;;11.60;68.50;;;;;;5163589;27;20046;-69
2023/09/26 05:38:34;;;;;;;0.40;0.40;;;11.90;68.80;;;;;;5153023;27;20080;-69
2023/09/26 05:41:00;;;;;;;0.50;0.50;;;12.20;68.90;;;;;;5152688;27;20034;-69
2023/09/26 05:43:27;;;;;;;0.47;0.47;;;12.40;69.10;;;;;;5152026;27;20110;-69
2023/09/26 05:45:52;;;;;;;0.40;0.40;;;12.70;69.30;;;;;;5152642;27;20019;-69
2023/09/26 05:48:18;;;;;;;0.50;0.50;;;13.10;69.50;;;;;;5152251;27;20033;-70
2023/09/26 05:50:44;;;;;;;0.50;0.50;;;13.40;69.70;;;;;;5152912;27;20516;-70
2023/09/26 05:53:09;;;;;;;0.60;0.60;;;13.80;69.80;;;;;;5169484;27;20045;-70
2023/09/26 05:55:35;;;;;;;0.50;0.50;;;14.20;70.00;;;;;;5175964;27;20059;-69
2023/09/26 05:58:00;;;;;;;0.40;0.40;;;14.60;70.40;;;;;;5171898;27;20034;-70
2023/09/26 06:00:26;;;;;;;0.43;0.43;;;15.00;70.40;;;;;;5176083;27;20037;-70
2023/09/26 06:02:52;;;;;;;0.50;0.50;;;15.50;70.50;;;;;;5175558;27;20025;-70
2023/09/26 06:05:19;;;;;;;0.60;0.60;;;15.90;70.60;;;;;;5176479;27;20031;-70
2023/09/26 06:07:44;;;;;;;0.50;0.50;;;16.30;70.60;;;;;;5158066;27;20526;-70
2023/09/26 06:10:11;;;;;;;0.40;0.40;;;16.80;70.70;;;;;;5176910;27;20034;-69
2023/09/26 06:12:42;;;;;;;0.50;0.50;;;17.20;70.30;;;;;;5176256;27;20026;-69
2023/09/26 06:15:12;;;;;;;0.52;0.52;;;17.60;70.40;;;;;;5176860;27;20106;-69
2023/09/26 06:17:39;;;;;;;0.70;0.70;;;18.00;70.50;;;;;;5156012;27;20037;-69
2023/09/26 06:20:08;;;;;;;0.50;0.50;;;18.50;70.50;;;;;;5176435;27;20026;-69
2023/09/26 06:22:34;;;;;;;0.50;0.50;;;18.90;70.30;;;;;;5156332;27;20019;-69
2023/09/26 06:25:00;;;;;;;0.50;0.50;;;19.30;70.00;;;;;;5155643;27;20038;-69
2023/09/26 06:27:26;;;;;;;0.40;0.40;;;19.80;69.70;;;;;;5153858;27;20038;-70
2023/09/26 06:29:52;;;;;;;0.40;0.40;;;20.20;69.60;;;;;;5175472;27;20031;-69
2023/09/26 06:32:17;;;;;;;0.43;0.43;;;20.60;69.40;;;;;;5158741;27;20025;-68
2023/09/26 06:34:44;;;;;;;0.77;0.77;;;20.90;68.90;;;;;;5155304;27;20496;-67
2023/09/26 06:37:10;;;;;;;2.92;0.77;;;21.30;68.80;;;;;;5155035;27;20022;-67
2023/09/26 06:39:36;;;;;;;0.45;0.45;;;21.70;68.90;;;;;;5171399;27;20034;-67
2023/09/26 06:42:02;;;;;;;0.60;0.60;;;22.10;68.90;;;;;;5160803;27;20018;-67
2023/09/26 06:44:28;;;;;;;0.50;0.50;;;22.50;68.80;;;;;;5155289;27;20024;-68
2023/09/26 06:46:55;;;;;;;0.60;0.60;;;22.80;68.40;;;;;;5155087;27;20088;-68
2023/09/26 06:49:21;;;;;;;0.40;0.40;;;23.20;67.90;;;;;;5169807;27;20033;-68
2023/09/26 06:51:46;;;;;;;0.60;0.60;;;23.60;67.70;;;;;;5163883;27;20480;-68
2023/09/26 06:54:12;;;;;;;0.40;0.40;;;24.00;67.40;;;;;;5156495;27;20034;-69
2023/09/26 06:56:37;;;;;;;0.50;0.50;;;24.30;67.10;;;;;;5168062;27;20011;-69
2023/09/26 06:59:04;;;;;;;0.50;0.50;;;24.70;67.10;;;;;;5173137;27;20628;-69
2023/09/26 07:01:30;;;;;;;0.47;0.47;;;25.10;66.90;;;;;;5173289;27;20048;-69
2023/09/26 07:03:55;;;;;;;0.52;0.52;;;25.40;66.70;;;;;;5169205;27;20451;-70
2023/09/26 07:06:21;;;;;;;0.40;0.40;;;25.70;66.30;;;;;;5173452;27;20083;-70
2023/09/26 07:08:46;;;;;;;1.60;0.98;;;25.90;65.60;;;;;;5175678;27;20045;-68
2023/09/26 07:11:13;;;;;;;0.50;0.50;;;26.20;66.50;;;;;;5171279;27;20042;-70
2023/09/26 07:13:39;;;;;;;0.52;0.52;;;26.40;65.80;;;;;;5169413;27;20018;-70
2023/09/26 07:16:05;;;;;;;0.63;0.63;;;26.70;66.90;;;;;;5178535;27;20105;-70
2023/09/26 07:18:31;;;;;;;0.50;0.50;;;27.10;66.70;;;;;;5175490;27;20025;-70
2023/09/26 07:21:04;;;;;;;0.50;0.50;;;27.40;66.40;;;;;;5163167;27;20034;-70
2023/09/26 07:23:35;;;;;;;0.60;0.60;;;27.70;66.80;;;;;;5160447;27;20044;-69
2023/09/26 07:26:09;;;;;;;0.40;0.40;;;28.10;66.90;;;;;;5168475;27;20034;-69
2023/09/26 07:28:35;;;;;;;0.50;0.50;;;28.50;66.50;;;;;;5161727;27;20026;-70
2023/09/26 07:31:00;;;;;;;0.70;0.70;;;28.80;66.50;;;;;;5174789;27;20026;-69
2023/09/26 07:33:28;;;;;;;0.50;0.50;;;29.00;66.10;;;;;;5175740;27;20101;-69
2023/09/26 07:35:54;;;;;;;0.50;0.50;;;29.30;65.30;;;;;;5169996;27;20538;-69
2023/09/26 07:38:20;;;;;;;0.90;0.63;;;29.40;65.40;;;;;;5170739;27;20026;-69
2023/09/26 07:40:45;;;;;;;0.75;0.75;;;29.60;64.70;;;;;;5171412;27;20514;-69
2023/09/26 07:43:11;;;;;;;0.57;0.57;;;29.70;63.90;;;;;;5173953;27;20030;-69
2023/09/26 07:45:39;;;;;;;0.60;0.60;;;29.80;63.10;;;;;;5175728;27;20389;-69
2023/09/26 07:48:05;;;;;;;0.40;0.40;;;29.80;64.30;;;;;;5169237;27;20390;-70
2023/09/26 07:50:31;;;;;;;0.40;0.40;;;30.10;64.40;;;;;;5173843;27;20058;-69
2023/09/26 07:52:56;;;;;;;0.40;0.40;;;30.30;63.30;;;;;;5172488;27;20026;-69
2023/09/26 07:55:24;;;;;;;0.50;0.50;;;30.30;62.50;;;;;;5158601;27;20030;-69
2023/09/26 07:57:49;;;;;;;0.57;0.57;;;30.30;62.20;;;;;;5168830;27;20608;-68
2023/09/26 08:00:15;;;;;;;0.60;0.60;;;30.30;61.20;;;;;;5172913;27;20044;-68
2023/09/26 08:02:41;;;;;;;1.17;0.85;;;30.30;61.20;;;;;;5151428;27;20105;-68
2023/09/26 08:05:07;;;;;;;0.40;0.40;;;30.30;61.70;;;;;;5152055;27;20110;-68
2023/09/26 08:07:33;;;;;;;0.60;0.60;;;30.50;60.20;;;;;;5151125;27;20026;-69
2023/09/26 08:10:00;;;;;;;0.40;0.40;;;30.70;60.60;;;;;;5170504;27;20212;-68
2023/09/26 08:12:27;;;;;;;0.70;0.70;;;30.90;60.00;;;;;;5154000;27;20019;-69
2023/09/26 08:14:56;;;;;;;0.68;0.68;;;31.20;59.50;;;;;;5151724;27;20035;-69
2023/09/26 08:17:23;;;;;;;1.23;1.15;;;31.40;58.40;;;;;;5153095;27;20471;-69
2023/09/26 08:19:48;;;;;;;0.57;0.57;;;31.50;55.50;;;;;;5171347;27;20049;-69
2023/09/26 08:22:14;;;;;;;0.63;0.63;;;31.70;55.70;;;;;;5157184;27;20019;-68
2023/09/26 08:24:39;;;;;;;0.55;0.55;;;31.80;53.90;;;;;;5152054;27;20034;-68
2023/09/26 08:27:05;;;;;;;0.50;0.50;;;31.90;53.50;;;;;;5153328;27;20025;-68
2023/09/26 08:29:31;;;;;;;2.15;0.75;;;32.10;53.20;;;;;;5149577;27;20447;-69
2023/09/26 08:31:57;;;;;;;0.40;0.40;;;32.30;52.20;;;;;;5153063;27;20029;-69
2023/09/26 08:34:23;;;;;;;1.13;0.68;;;32.50;51.80;;;;;;5166865;27;20063;-69
2023/09/26 08:36:49;;;;;;;0.60;0.60;;;32.70;49.40;;;;;;5164460;27;20551;-68
2023/09/26 08:39:14;;;;;;;0.50;0.50;;;32.90;50.40;;;;;;5169313;27;20026;-70
2023/09/26 08:41:43;;;;;;;0.50;0.50;;;33.10;47.80;;;;;;5173097;27;20065;-68
2023/09/26 08:44:09;;;;;;;0.60;0.60;;;33.20;47.30;;;;;;5173911;27;20113;-68
2023/09/26 08:46:37;;;;;;;0.45;0.45;;;33.30;46.90;;;;;;5171198;27;20105;-68
2023/09/26 08:49:04;;;;;;;0.55;0.55;;;33.50;47.30;;;;;;5158180;27;20030;-68
2023/09/26 08:51:30;;;;;;;2.58;0.98;;;33.80;46.50;;;;;;5162998;27;20383;-68
2023/09/26 08:53:55;;;;;;;0.60;0.60;;;34.00;44.00;;;;;;5173576;27;20025;-69
2023/09/26 08:56:21;;;;;;;0.60;0.60;;;34.20;42.40;;;;;;5172750;27;20049;-69
2023/09/26 08:58:49;;;;;;;0.80;0.80;;;34.30;42.10;;;;;;5167960;27;20428;-69
2023/09/26 09:01:16;;;;;;;0.60;0.60;;;34.60;40.00;;;;;;5165756;27;20465;-71
2023/09/26 09:03:42;;;;;;;0.60;0.60;;;34.70;39.10;;;;;;5151308;27;20443;-68
2023/09/26 09:06:08;;;;;;;0.50;0.50;;;34.80;37.30;;;;;;5159695;27;20113;-67
2023/09/26 09:08:34;;;;;;;1.38;1.00;;;34.90;37.50;;;;;;5169211;27;20044;-68
2023/09/26 09:11:00;;;;;;;1.27;0.90;;;35.00;37.00;;;;;;5163994;27;20035;-68
2023/09/26 09:13:33;;;;;;;0.60;0.60;;;35.10;35.40;;;;;;5152351;27;20028;-68
2023/09/26 09:16:10;;;;;;;2.17;1.25;;;35.20;35.30;;;;;;5168961;27;20030;-68
2023/09/26 09:18:37;;;;;;;0.50;0.50;;;35.20;34.90;;;;;;5168891;27;20538;-69
2023/09/26 09:21:32;;;;;;;1.02;0.95;;;35.20;33.80;;;;;;5172678;27;20455;-69
2023/09/26 09:24:02;;;;;;;0.98;0.88;;;35.20;32.20;;;;;;5172288;27;20390;-70
2023/09/26 09:26:34;;;;;;;0.60;0.60;;;35.00;32.70;;;;;;5153712;27;20034;-69
2023/09/26 09:29:16;;;;;;;0.50;0.50;;;35.10;33.40;;;;;;5168286;27;20478;-70
2023/09/26 09:31:42;;;;;;;0.60;0.60;;;35.30;33.30;;;;;;5179089;27;20486;-70
2023/09/26 09:34:08;;;;;;;0.60;0.60;;;35.50;33.60;;;;;;5183770;27;20502;-71
2023/09/26 09:36:34;;;;;;;0.60;0.60;;;35.70;33.30;;;;;;5178476;27;20030;-71
2023/09/26 09:39:02;;;;;;;0.63;0.63;;;35.80;31.70;;;;;;5177855;27;20018;-71
2023/09/26 09:41:27;;;;;;;5.00;1.00;;;35.80;32.40;;;;;;5180646;27;20022;-70
2023/09/26 09:43:53;;;;;;;0.70;0.70;;;35.90;32.40;;;;;;5180401;27;20015;-70
2023/09/26 09:46:22;;;;;;;0.60;0.60;;;36.10;32.00;;;;;;5181518;27;20386;-70
2023/09/26 09:48:53;;;;;;;0.70;0.70;;;36.20;31.30;;;;;;5175280;27;20120;-70
2023/09/26 09:51:20;;;;;;;0.70;0.70;;;36.30;31.10;;;;;;5175619;27;20019;-71
2023/09/26 09:53:53;;;;;;;0.70;0.70;;;36.40;31.00;;;;;;5181316;27;20378;-70
2023/09/26 09:56:21;;;;;;;0.60;0.60;;;36.50;30.70;;;;;;5177317;27;20070;-70
2023/09/26 09:58:59;;;;;;;1.25;1.15;;;36.60;30.30;;;;;;5172781;27;20028;-70
2023/09/26 10:01:26;;;;;;;0.90;0.90;;;36.60;30.00;;;;;;5176444;27;20023;-71
2023/09/26 10:03:52;;;;;;;0.70;0.70;;;36.30;28.80;;;;;;5180983;27;20011;-71
2023/09/26 10:06:18;;;;;;;0.75;0.75;;;36.30;29.70;;;;;;5174835;27;20527;-71
2023/09/26 10:08:47;;;;;;;0.60;0.60;;;36.30;29.70;;;;;;5174796;27;20094;-71
2023/09/26 10:11:14;;;;;;;0.90;0.73;;;36.40;29.80;;;;;;5172833;27;20026;-71
2023/09/26 10:13:40;;;;;;;0.60;0.60;;;36.50;29.40;;;;;;5158636;27;20038;-71
2023/09/26 10:16:18;;;;;;;2.08;0.88;;;36.50;29.20;;;;;;5159737;27;20031;-71
2023/09/26 10:18:46;;;;;;;0.50;0.50;;;36.50;28.70;;;;;;5162305;27;20030;-68
2023/09/26 10:21:24;;;;;;;0.50;0.50;;;36.60;28.80;;;;;;5163323;27;20046;-68
2023/09/26 10:24:05;;;;;;;0.50;0.50;;;36.70;29.00;;;;;;5155375;27;20079;-70
2023/09/26 10:26:31;;;;;;;0.80;0.80;;;36.70;29.20;;;;;;5162053;27;20031;-68
2023/09/26 10:29:10;;;;;;;0.70;0.70;;;36.80;28.80;;;;;;5157139;27;20042;-68
2023/09/26 10:31:38;;;;;;;0.70;0.70;;;37.00;28.40;;;;;;5165254;27;20033;-68
2023/09/26 10:34:05;;;;;;;0.80;0.80;;;37.10;28.00;;;;;;5174180;27;20022;-68
2023/09/26 10:36:31;;;;;;;0.70;0.70;;;37.20;27.60;;;;;;5164756;27;20059;-68
2023/09/26 10:39:05;;;;;;;0.52;0.52;;;37.30;27.30;;;;;;5164330;27;20038;-69
2023/09/26 10:41:34;;;;;;;0.52;0.52;;;37.20;27.20;;;;;;5165125;27;20019;-69
2023/09/26 10:44:01;;;;;;;0.50;0.50;;;37.20;27.10;;;;;;5162578;27;20370;-68
2023/09/26 10:46:27;;;;;;;1.25;0.57;;;37.00;26.80;;;;;;5165539;27;20395;-68
2023/09/26 10:48:52;;;;;;;0.50;0.50;;;36.70;26.40;;;;;;5168412;27;20028;-70
2023/09/26 10:51:18;;;;;;;0.80;0.80;;;36.40;26.90;;;;;;5174940;27;20033;-70
2023/09/26 10:53:44;;;;;;;0.47;0.47;;;36.30;26.80;;;;;;5169444;27;20538;-70
2023/09/26 10:56:10;;;;;;;0.68;0.68;;;36.20;26.90;;;;;;5183187;27;20097;-70
2023/09/26 10:58:36;;;;;;;0.40;0.40;;;36.10;26.90;;;;;;5178618;27;20495;-70
2023/09/26 11:01:02;;;;;;;0.52;0.52;;;36.00;26.80;;;;;;5182119;27;20034;-70
2023/09/26 11:03:29;;;;;;;0.57;0.57;;;35.90;27.00;;;;;;5180805;27;20055;-70
2023/09/26 11:05:55;;;;;;;0.70;0.70;;;35.90;27.10;;;;;;5182955;27;20049;-69
2023/09/26 11:08:22;;;;;;;0.52;0.52;;;35.90;27.50;;;;;;5178550;27;20018;-69
2023/09/26 11:10:51;;;;;;;0.50;0.50;;;35.90;27.30;;;;;;5163956;27;20035;-69
2023/09/26 11:13:22;;;;;;;0.70;0.70;;;35.90;27.50;;;;;;5176262;27;20026;-69
2023/09/26 11:15:54;;;;;;;0.50;0.50;;;36.00;27.40;;;;;;5177885;27;20545;-69
2023/09/26 11:18:21;;;;;;;0.50;0.50;;;35.90;27.70;;;;;;5172579;27;20065;-69
2023/09/26 11:20:46;;;;;;;0.50;0.50;;;36.00;27.50;;;;;;5160803;27;20023;-69
2023/09/26 11:23:32;;;;;;;0.70;0.70;;;36.00;27.50;;;;;;5176511;27;20116;-69
2023/09/26 11:26:03;;;;;;;0.50;0.50;;;36.00;27.50;;;;;;5177814;27;20060;-69
2023/09/26 11:28:30;;;;;;;0.50;0.50;;;36.00;26.70;;;;;;5171003;27;20098;-70
2023/09/26 11:30:55;;;;;;;0.50;0.50;;;35.90;25.90;;;;;;5157215;27;20068;-69
2023/09/26 11:33:21;;;;;;;0.40;0.40;;;35.70;26.30;;;;;;5163283;27;20034;-69
2023/09/26 11:35:46;;;;;;;0.60;0.60;;;35.70;26.50;;;;;;5177739;27;20038;-69
2023/09/26 11:38:13;;;;;;;0.45;0.45;;;35.70;26.70;;;;;;5162536;27;20451;-69
2023/09/26 11:40:39;;;;;;;0.50;0.50;;;35.70;26.30;;;;;;5157925;27;20507;-70
2023/09/26 11:43:06;;;;;;;0.73;0.60;;;35.70;26.00;;;;;;5157412;27;20056;-70
2023/09/26 11:45:32;;;;;;;0.40;0.40;;;35.70;25.40;;;;;;5177116;27;20034;-70
2023/09/26 11:47:59;;;;;;;0.60;0.60;;;35.60;25.30;;;;;;5170911;27;20030;-70
2023/09/26 11:50:26;;;;;;;0.50;0.50;;;35.50;25.20;;;;;;5173829;27;20045;-70
2023/09/26 11:52:56;;;;;;;0.40;0.40;;;35.50;25.00;;;;;;5170430;27;20026;-70
2023/09/26 11:55:23;;;;;;;0.63;0.63;;;35.40;25.10;;;;;;5176106;27;20555;-69
2023/09/26 11:57:49;;;;;;;1.10;0.63;;;35.30;24.70;;;;;;5157639;27;20455;-70
2023/09/26 12:00:16;;;;;;;0.50;0.50;;;35.20;24.60;;;;;;5175396;27;20086;-69
2023/09/26 12:02:43;;;;;;;1.27;0.82;;;35.20;25.10;;;;;;5173727;27;20034;-68
2023/09/26 12:05:11;;;;;;;0.50;0.50;;;35.10;25.40;;;;;;5178175;27;20042;-70
2023/09/26 12:07:37;;;;;;;0.47;0.47;;;35.10;25.40;;;;;;5174132;27;20027;-70
2023/09/26 12:10:04;;;;;;;0.45;0.45;;;35.00;25.00;;;;;;5175752;27;20022;-69
2023/09/26 12:12:30;;;;;;;0.68;0.68;;;34.90;25.00;;;;;;5172404;27;20030;-69
2023/09/26 12:15:17;;;;;;;0.30;0.30;;;34.70;25.10;;;;;;5177368;27;20104;-70
2023/09/26 12:17:43;;;;;;;1.95;0.50;;;34.60;25.40;;;;;;5171661;27;20078;-70
2023/09/26 12:20:09;;;;;;;2.80;0.57;;;34.50;25.10;;;;;;5176293;27;20089;-70
2023/09/26 12:22:35;;;;;;;0.50;0.50;;;34.30;25.10;;;;;;5171194;27;20018;-69
2023/09/26 12:25:01;;;;;;;0.60;0.60;;;34.30;25.40;;;;;;5178532;27;20027;-69
2023/09/26 12:27:27;;;;;;;0.43;0.43;;;34.20;24.70;;;;;;5157553;27;20115;-70
2023/09/26 12:29:52;;;;;;;0.55;0.55;;;33.90;25.20;;;;;;5172151;27;20051;-69
2023/09/26 12:32:18;;;;;;;0.50;0.50;;;33.80;25.50;;;;;;5166913;27;20030;-70
2023/09/26 12:34:43;;;;;;;0.50;0.50;;;33.80;25.70;;;;;;5177346;27;20034;-69
2023/09/26 12:37:09;;;;;;;0.40;0.40;;;33.70;25.80;;;;;;5160769;27;20026;-69
2023/09/26 12:39:34;;;;;;;0.50;0.50;;;33.60;25.90;;;;;;5171576;27;20030;-70
2023/09/26 12:42:00;;;;;;;0.40;0.40;;;33.50;25.90;;;;;;5162598;27;20037;-69
2023/09/26 12:44:26;;;;;;;0.50;0.50;;;33.40;26.10;;;;;;5168592;27;20133;-69
2023/09/26 12:46:51;;;;;;;0.60;0.60;;;33.30;26.10;;;;;;5176465;27;20025;-69